Albion, Michigan
Current Conditions -  °F | °C
As of 1:34 PM on Friday 28 Nov 2014 (Local Time) from KRMY Reporting Station
Overcast Overcast  
Wind Chill: 17°   Ceiling: 8000
Heat Index: 24°   Visibility: 10mi
Dew Point: 15°   Wind: 6mph
Humidity: 69%   Direction: 190°S
Pressure: 30.18"   Gusts: NA
Location:  42.25°N, 84.75°W
Report Text: KRMY 281834Z AUTO 19005KT 10SM SCT020 SCT026 OVC080 M04/M09 A3018 RMK AO2 T10441094
Loading
Personal Weather Stations






























Interactive Weather Map New forecast layout! Learn more

10-Day Weather Forecast

Advertisements
Track Severe Weather on mobile